Time;durP1;ratioP1;P1;durP2;ratioP2;P2;SDS_P1;SDS_P2;PMS_P1;PMS_P2;Temp;Humidity;BMP_temperature;BMP_pressure;BME280_temperature;BME280_humidity;BME280_pressure;Samples;Min_cycle;Max_cycle;Signal;HPM_P1;HPM_P2
2022/10/29 00:00:30;;;;;;;5.10;2.67;;;13.70;99.90;;;;;;5111877;28;20444;-70
2022/10/29 00:02:58;;;;;;;2.70;2.37;;;13.60;99.90;;;;;;5111844;28;20448;-70
2022/10/29 00:05:25;;;;;;;3.07;2.20;;;13.80;99.90;;;;;;5112036;28;20813;-71
2022/10/29 00:07:52;;;;;;;3.73;2.43;;;13.80;99.90;;;;;;5111455;28;20483;-71
2022/10/29 00:10:19;;;;;;;3.50;1.97;;;13.60;99.90;;;;;;5111213;28;20927;-71
2022/10/29 00:12:45;;;;;;;3.47;2.63;;;13.50;99.90;;;;;;5112012;28;20454;-70
2022/10/29 00:15:12;;;;;;;4.10;2.10;;;13.40;99.90;;;;;;5111508;28;20443;-70
2022/10/29 00:17:39;;;;;;;4.17;2.20;;;13.40;99.90;;;;;;5111551;28;20451;-70
2022/10/29 00:20:09;;;;;;;3.27;2.57;;;13.50;99.90;;;;;;5111326;28;20451;-70
2022/10/29 00:22:35;;;;;;;6.97;2.30;;;13.60;99.90;;;;;;5112083;28;20447;-70
2022/10/29 00:25:02;;;;;;;4.17;2.43;;;13.60;99.90;;;;;;5110864;28;20808;-69
2022/10/29 00:27:29;;;;;;;6.50;3.50;;;13.50;99.90;;;;;;5110869;28;20483;-69
2022/10/29 00:29:56;;;;;;;3.40;1.83;;;13.40;99.90;;;;;;5111592;28;20444;-69
2022/10/29 00:32:23;;;;;;;6.13;2.93;;;13.40;99.90;;;;;;5110985;28;20451;-70
2022/10/29 00:34:49;;;;;;;5.60;2.43;;;13.30;99.90;;;;;;5110879;28;20892;-70
2022/10/29 00:37:17;;;;;;;3.73;2.37;;;13.30;99.90;;;;;;5110501;28;20818;-69
2022/10/29 00:39:44;;;;;;;4.77;2.67;;;13.40;99.90;;;;;;5111201;28;20447;-70
2022/10/29 00:42:14;;;;;;;5.87;2.47;;;13.20;99.90;;;;;;5111170;28;20535;-70
2022/10/29 00:44:42;;;;;;;5.27;3.13;;;13.30;99.90;;;;;;5111572;28;20497;-70
2022/10/29 00:47:20;;;;;;;5.23;2.50;;;13.40;99.90;;;;;;5110660;28;20487;-70
2022/10/29 00:49:50;;;;;;;12.20;3.10;;;13.70;99.90;;;;;;5110793;28;20483;-70
2022/10/29 00:52:22;;;;;;;4.70;2.70;;;13.70;99.90;;;;;;5110968;28;20458;-70
2022/10/29 00:54:51;;;;;;;4.53;2.70;;;13.50;99.90;;;;;;5110807;28;20455;-70
2022/10/29 00:57:25;;;;;;;9.27;3.10;;;13.40;99.90;;;;;;5096599;28;20456;-70
2022/10/29 00:59:52;;;;;;;5.10;2.40;;;13.40;99.90;;;;;;5111006;28;20516;-70
2022/10/29 01:02:19;;;;;;;5.27;2.70;;;13.40;99.90;;;;;;5113719;28;20810;-71
2022/10/29 01:04:46;;;;;;;3.60;2.57;;;13.50;99.90;;;;;;5114847;28;20456;-70
2022/10/29 01:07:13;;;;;;;6.93;2.97;;;13.40;99.90;;;;;;5102542;28;20483;-70
2022/10/29 01:09:42;;;;;;;5.90;2.30;;;13.50;99.90;;;;;;5114763;28;20973;-70
2022/10/29 01:12:37;;;;;;;4.07;2.50;;;13.60;99.90;;;;;;5114427;28;20813;-70
2022/10/29 01:15:17;;;;;;;4.60;2.40;;;13.50;99.90;;;;;;5087588;28;20448;-71
2022/10/29 01:17:56;;;;;;;4.47;3.07;;;13.50;99.90;;;;;;5114723;28;20450;-70
2022/10/29 01:20:41;;;;;;;4.80;2.50;;;13.40;99.90;;;;;;5103910;28;20447;-70
2022/10/29 01:23:28;;;;;;;3.30;2.33;;;13.50;99.90;;;;;;5114040;28;20452;-71
2022/10/29 01:26:29;;;;;;;7.60;2.50;;;13.60;99.90;;;;;;5110007;28;20865;-71
2022/10/29 01:29:11;;;;;;;3.10;2.43;;;13.50;99.90;;;;;;5114504;28;20471;-71
2022/10/29 01:31:44;;;;;;;6.53;2.70;;;13.60;99.90;;;;;;5114923;28;20448;-70
2022/10/29 01:34:15;;;;;;;8.00;2.40;;;13.60;99.90;;;;;;5113960;28;20443;-71
2022/10/29 01:36:52;;;;;;;3.03;2.47;;;13.60;99.90;;;;;;5113983;28;20448;-70
2022/10/29 01:39:27;;;;;;;7.73;2.80;;;13.70;99.90;;;;;;5113906;28;20439;-71
2022/10/29 01:42:01;;;;;;;4.20;2.47;;;13.80;99.90;;;;;;5114414;28;20952;-71
2022/10/29 01:44:35;;;;;;;10.63;2.43;;;13.80;99.90;;;;;;5112368;28;20447;-72
2022/10/29 01:47:04;;;;;;;5.50;2.57;;;13.70;99.90;;;;;;5112836;28;20459;-70
2022/10/29 01:49:36;;;;;;;3.10;2.37;;;13.60;99.90;;;;;;5114320;28;20463;-69
2022/10/29 01:52:05;;;;;;;3.60;2.33;;;13.60;99.90;;;;;;5113882;28;20440;-70
2022/10/29 01:54:32;;;;;;;3.23;2.10;;;13.60;99.90;;;;;;5114208;28;20440;-70
2022/10/29 01:57:00;;;;;;;7.93;2.30;;;13.60;99.90;;;;;;5113676;28;20448;-70
2022/10/29 01:59:31;;;;;;;4.00;2.23;;;13.60;99.90;;;;;;5114238;28;20455;-70
2022/10/29 02:02:12;;;;;;;9.37;2.67;;;13.50;99.90;;;;;;5113661;28;20448;-70
2022/10/29 02:04:57;;;;;;;3.50;2.10;;;13.50;99.90;;;;;;5114067;28;20444;-70
2022/10/29 02:07:36;;;;;;;6.27;2.60;;;13.40;99.90;;;;;;5112672;28;20468;-70
2022/10/29 02:10:11;;;;;;;6.43;3.00;;;13.50;99.90;;;;;;5113527;28;20455;-70
2022/10/29 02:12:46;;;;;;;11.17;2.07;;;13.50;99.90;;;;;;5113623;28;20914;-70
2022/10/29 02:15:17;;;;;;;6.73;2.50;;;13.50;99.90;;;;;;5102709;28;20476;-70
2022/10/29 02:17:45;;;;;;;5.00;2.87;;;13.60;99.90;;;;;;5113219;28;20443;-69
2022/10/29 02:20:15;;;;;;;6.23;2.60;;;13.60;99.90;;;;;;5113125;28;20440;-70
2022/10/29 02:22:42;;;;;;;10.83;3.97;;;13.80;99.90;;;;;;5113815;28;20464;-69
2022/10/29 02:25:10;;;;;;;11.10;3.60;;;13.80;99.90;;;;;;5112733;28;20455;-70
2022/10/29 02:27:37;;;;;;;3.77;2.40;;;13.70;99.90;;;;;;5109118;28;20484;-70
2022/10/29 02:30:05;;;;;;;4.60;2.50;;;13.70;99.90;;;;;;5113108;28;20467;-70
2022/10/29 02:32:31;;;;;;;5.83;3.90;;;13.70;99.90;;;;;;5113505;28;20465;-69
2022/10/29 02:35:00;;;;;;;4.53;1.70;;;13.70;99.90;;;;;;5113361;28;20444;-70
2022/10/29 02:37:27;;;;;;;3.33;2.73;;;13.80;99.90;;;;;;5112934;28;20463;-70
2022/10/29 02:39:54;;;;;;;8.53;2.53;;;13.70;99.90;;;;;;5113248;28;20531;-70
2022/10/29 02:42:21;;;;;;;2.07;1.87;;;13.70;99.90;;;;;;5112611;28;20961;-70
2022/10/29 02:44:47;;;;;;;4.60;3.03;;;13.70;99.90;;;;;;5113075;28;20456;-69
2022/10/29 02:47:14;;;;;;;6.40;2.60;;;13.80;99.90;;;;;;5109751;28;20459;-70
2022/10/29 02:49:41;;;;;;;3.20;1.90;;;13.90;99.90;;;;;;5113130;28;20507;-70
2022/10/29 02:52:09;;;;;;;4.40;2.50;;;14.00;99.90;;;;;;5112760;28;20451;-70
2022/10/29 02:54:37;;;;;;;4.50;2.67;;;14.00;99.90;;;;;;5113071;28;20459;-70
2022/10/29 02:57:04;;;;;;;2.27;2.07;;;14.20;99.90;;;;;;5112203;28;20454;-70
2022/10/29 02:59:31;;;;;;;5.17;2.20;;;14.10;99.90;;;;;;5113288;28;20452;-70
2022/10/29 03:01:58;;;;;;;3.70;2.73;;;14.10;99.90;;;;;;5112703;28;20458;-70
2022/10/29 03:04:25;;;;;;;2.83;2.00;;;14.00;99.90;;;;;;5112927;28;20962;-70
2022/10/29 03:06:52;;;;;;;5.67;2.33;;;14.20;99.90;;;;;;5112072;28;20451;-70
2022/10/29 03:09:20;;;;;;;3.67;2.23;;;14.30;99.90;;;;;;5112188;28;20546;-70
2022/10/29 03:11:47;;;;;;;5.00;2.67;;;14.50;99.90;;;;;;5112395;28;20463;-70
2022/10/29 03:14:14;;;;;;;3.53;2.10;;;14.50;99.90;;;;;;5104792;28;20440;-70
2022/10/29 03:16:41;;;;;;;6.47;2.20;;;14.50;99.90;;;;;;5111677;28;20456;-70
2022/10/29 03:19:08;;;;;;;3.70;2.93;;;14.60;99.90;;;;;;5111836;28;20467;-70
2022/10/29 03:21:34;;;;;;;4.77;3.17;;;14.60;99.90;;;;;;5112213;28;20451;-70
2022/10/29 03:24:01;;;;;;;5.60;4.70;;;14.50;99.90;;;;;;5111055;28;20463;-69
2022/10/29 03:26:29;;;;;;;2.47;2.03;;;14.50;99.90;;;;;;5111401;28;20439;-70
2022/10/29 03:28:56;;;;;;;6.37;3.40;;;14.50;99.90;;;;;;5112085;28;20966;-70
2022/10/29 03:31:23;;;;;;;5.53;2.70;;;14.50;99.90;;;;;;5111542;28;20444;-70
2022/10/29 03:33:50;;;;;;;4.50;3.23;;;14.50;99.90;;;;;;5112070;28;20558;-70
2022/10/29 03:36:16;;;;;;;7.10;2.80;;;14.50;99.90;;;;;;5100137;28;20539;-70
2022/10/29 03:38:43;;;;;;;5.57;2.67;;;14.50;99.90;;;;;;5111423;28;20480;-70
2022/10/29 03:41:10;;;;;;;3.83;2.50;;;14.50;99.90;;;;;;5109684;28;20855;-69
2022/10/29 03:43:38;;;;;;;4.90;2.87;;;14.50;99.90;;;;;;5111670;28;20967;-70
2022/10/29 03:46:06;;;;;;;3.37;2.33;;;14.50;99.90;;;;;;5103725;28;20481;-70
2022/10/29 03:48:33;;;;;;;5.77;2.57;;;14.40;99.90;;;;;;5110357;28;20491;-69
2022/10/29 03:51:01;;;;;;;5.03;2.80;;;14.20;99.90;;;;;;5110917;28;20459;-70
2022/10/29 03:53:29;;;;;;;6.97;2.40;;;14.30;99.90;;;;;;5110955;28;20443;-70
2022/10/29 03:55:57;;;;;;;4.43;2.60;;;14.20;99.90;;;;;;5110700;28;20947;-70
2022/10/29 03:58:24;;;;;;;5.23;3.20;;;14.20;99.90;;;;;;5109985;28;20455;-70
2022/10/29 04:00:58;;;;;;;2.83;2.30;;;14.10;99.90;;;;;;5110727;28;20447;-70
2022/10/29 04:03:26;;;;;;;8.03;3.60;;;14.00;99.90;;;;;;5111276;28;20878;-70
2022/10/29 04:05:54;;;;;;;5.37;2.63;;;14.00;99.90;;;;;;5110849;28;20447;-70
2022/10/29 04:08:21;;;;;;;7.03;3.30;;;14.00;99.90;;;;;;5109946;28;20475;-70
2022/10/29 04:10:50;;;;;;;2.80;2.10;;;14.10;99.90;;;;;;5111007;28;20451;-70
2022/10/29 04:13:18;;;;;;;7.90;3.33;;;14.00;99.90;;;;;;5110130;28;20463;-70
2022/10/29 04:15:46;;;;;;;4.43;2.83;;;14.00;99.90;;;;;;5110535;28;20452;-70
2022/10/29 04:18:14;;;;;;;4.30;2.27;;;14.00;99.90;;;;;;5109491;28;20452;-70
2022/10/29 04:20:41;;;;;;;3.50;2.00;;;13.90;99.90;;;;;;5110596;28;20492;-70
2022/10/29 04:23:08;;;;;;;7.00;2.60;;;13.90;99.90;;;;;;5110114;28;20483;-70
2022/10/29 04:25:34;;;;;;;11.30;2.77;;;14.00;99.90;;;;;;5110231;28;20463;-70
2022/10/29 04:28:01;;;;;;;6.13;2.33;;;14.10;99.90;;;;;;5109403;28;20492;-70
2022/10/29 04:30:28;;;;;;;4.67;2.90;;;14.20;99.90;;;;;;5110918;28;20455;-70
2022/10/29 04:32:59;;;;;;;6.10;2.83;;;14.20;99.90;;;;;;5110746;28;20440;-69
2022/10/29 04:35:28;;;;;;;8.83;2.90;;;14.10;99.90;;;;;;5108163;28;20451;-71
2022/10/29 04:37:55;;;;;;;4.53;2.40;;;13.90;99.90;;;;;;5106991;28;20448;-70
2022/10/29 04:40:23;;;;;;;2.50;2.20;;;13.80;99.90;;;;;;5110153;28;20448;-69
2022/10/29 04:42:50;;;;;;;5.47;2.80;;;13.80;99.90;;;;;;5110835;28;20500;-70
2022/10/29 04:45:17;;;;;;;8.27;2.57;;;13.70;99.90;;;;;;5109221;28;20439;-70
2022/10/29 04:47:44;;;;;;;5.03;3.43;;;13.70;99.90;;;;;;5107767;28;20927;-70
2022/10/29 04:50:11;;;;;;;6.83;2.50;;;13.60;99.90;;;;;;5071956;28;1095082;-69
2022/10/29 04:52:40;;;;;;;8.83;3.17;;;13.70;99.90;;;;;;5105219;28;20195;-69
2022/10/29 04:55:07;;;;;;;7.53;3.13;;;13.70;99.90;;;;;;5105230;28;20440;-69
2022/10/29 04:57:34;;;;;;;4.13;3.00;;;13.80;99.90;;;;;;5110912;28;20448;-70
2022/10/29 05:00:01;;;;;;;5.37;3.60;;;13.70;99.90;;;;;;5110366;28;20452;-70
2022/10/29 05:02:27;;;;;;;5.20;3.40;;;13.80;99.90;;;;;;5110988;28;20959;-72
2022/10/29 05:04:54;;;;;;;10.13;4.00;;;13.80;99.90;;;;;;5110251;28;20440;-72
2022/10/29 05:07:21;;;;;;;3.67;2.87;;;13.90;99.90;;;;;;5109706;28;20448;-73
2022/10/29 05:09:49;;;;;;;4.27;2.83;;;13.90;99.90;;;;;;5110219;28;20479;-69
2022/10/29 05:12:16;;;;;;;3.87;2.13;;;13.80;99.90;;;;;;5110709;28;20447;-68
2022/10/29 05:14:43;;;;;;;4.53;2.37;;;13.80;99.90;;;;;;5106541;28;20432;-68
2022/10/29 05:17:09;;;;;;;3.60;2.70;;;13.80;99.90;;;;;;5105449;28;20452;-68
2022/10/29 05:19:36;;;;;;;4.30;2.90;;;13.80;99.90;;;;;;5111045;28;20931;-70
2022/10/29 05:22:03;;;;;;;3.40;2.40;;;13.80;99.90;;;;;;5110809;28;20812;-72
2022/10/29 05:24:30;;;;;;;5.13;2.70;;;13.80;99.90;;;;;;5111427;28;20448;-71
2022/10/29 05:26:58;;;;;;;6.80;2.23;;;13.80;99.90;;;;;;5110036;28;20440;-71
2022/10/29 05:29:25;;;;;;;4.13;2.67;;;13.60;99.90;;;;;;5110599;28;20909;-71
2022/10/29 05:31:54;;;;;;;4.00;3.07;;;13.70;99.90;;;;;;5111204;28;20443;-71
2022/10/29 05:34:20;;;;;;;3.53;2.93;;;13.60;99.90;;;;;;5105641;28;20483;-72
2022/10/29 05:36:47;;;;;;;2.77;1.80;;;13.50;99.90;;;;;;5096916;28;20798;-72
2022/10/29 05:39:14;;;;;;;5.70;2.67;;;13.40;99.90;;;;;;5105084;28;20448;-70
2022/10/29 05:41:41;;;;;;;6.90;3.20;;;13.20;99.90;;;;;;5110694;28;20444;-71
2022/10/29 05:44:09;;;;;;;4.60;2.57;;;13.10;99.90;;;;;;5110977;28;20452;-71
2022/10/29 05:46:36;;;;;;;6.93;3.27;;;12.90;99.90;;;;;;5111949;28;20957;-72
2022/10/29 05:49:03;;;;;;;6.30;2.53;;;12.90;99.90;;;;;;5114636;28;20493;-73
2022/10/29 05:51:31;;;;;;;5.43;3.03;;;12.80;99.90;;;;;;5114720;28;20443;-73
2022/10/29 05:53:57;;;;;;;3.00;2.60;;;13.00;99.90;;;;;;5113607;28;20923;-69
2022/10/29 05:56:24;;;;;;;10.00;2.60;;;12.90;99.90;;;;;;5113512;28;20447;-69
2022/10/29 05:58:51;;;;;;;3.30;2.53;;;12.80;99.90;;;;;;5101033;28;20451;-69
2022/10/29 06:01:19;;;;;;;3.20;2.20;;;12.70;99.90;;;;;;5113374;28;20792;-72
2022/10/29 06:03:46;;;;;;;4.83;2.77;;;12.60;99.90;;;;;;5113651;28;20440;-72
2022/10/29 06:06:13;;;;;;;7.70;3.83;;;12.60;99.90;;;;;;5113347;28;20819;-73
2022/10/29 06:08:40;;;;;;;4.70;2.90;;;12.60;99.90;;;;;;5113735;28;20830;-73
2022/10/29 06:11:06;;;;;;;4.57;2.90;;;12.70;99.90;;;;;;5113917;28;20447;-72
2022/10/29 06:13:33;;;;;;;3.73;2.50;;;12.90;99.90;;;;;;5114550;28;20447;-73
2022/10/29 06:16:01;;;;;;;5.10;3.10;;;13.00;99.90;;;;;;5113169;28;20455;-69
2022/10/29 06:18:29;;;;;;;3.97;2.50;;;12.80;99.90;;;;;;5112892;28;20451;-73
2022/10/29 06:20:59;;;;;;;6.00;3.60;;;12.70;99.90;;;;;;5113794;28;20453;-72
2022/10/29 06:23:26;;;;;;;9.70;2.80;;;12.50;99.90;;;;;;5113714;28;20443;-69
2022/10/29 06:25:53;;;;;;;3.47;2.90;;;12.50;99.90;;;;;;5112989;28;20450;-70
2022/10/29 06:28:20;;;;;;;3.77;2.57;;;12.50;99.90;;;;;;5112169;28;20733;-71
2022/10/29 06:30:48;;;;;;;3.47;2.90;;;12.40;99.90;;;;;;5113547;28;20447;-69
2022/10/29 06:33:15;;;;;;;5.23;2.57;;;12.40;99.90;;;;;;5111890;28;20942;-70
2022/10/29 06:35:43;;;;;;;5.77;3.73;;;12.40;99.90;;;;;;5113484;28;20444;-70
2022/10/29 06:38:10;;;;;;;6.00;3.17;;;12.40;99.90;;;;;;5112824;28;20774;-69
2022/10/29 06:40:37;;;;;;;3.87;2.73;;;12.40;99.90;;;;;;5112895;28;20455;-70
2022/10/29 06:43:06;;;;;;;4.23;2.80;;;12.40;99.90;;;;;;5112605;28;20443;-70
2022/10/29 06:45:33;;;;;;;5.60;2.83;;;12.70;99.90;;;;;;5112925;28;20452;-72
2022/10/29 06:48:00;;;;;;;4.17;2.93;;;12.50;99.90;;;;;;5112256;28;20448;-70
2022/10/29 06:50:28;;;;;;;3.47;2.60;;;12.70;99.90;;;;;;5113069;28;20565;-72
2022/10/29 06:52:58;;;;;;;3.77;3.10;;;12.70;99.90;;;;;;5113330;28;20440;-73
2022/10/29 06:55:25;;;;;;;10.67;4.50;;;12.70;99.90;;;;;;5112886;28;20455;-72
2022/10/29 06:57:59;;;;;;;4.60;3.00;;;12.60;99.90;;;;;;5110489;28;20447;-77
2022/10/29 07:00:26;;;;;;;7.27;3.43;;;12.60;99.90;;;;;;5108792;28;20467;-74
2022/10/29 07:02:53;;;;;;;5.43;3.00;;;12.70;99.90;;;;;;5107122;28;20459;-75
2022/10/29 07:05:21;;;;;;;7.57;3.60;;;12.70;99.90;;;;;;5110412;28;20448;-75
2022/10/29 07:07:47;;;;;;;5.80;3.00;;;12.60;99.90;;;;;;5110505;28;20448;-75
2022/10/29 07:10:16;;;;;;;6.13;2.53;;;12.70;99.90;;;;;;5110085;28;20490;-75
2022/10/29 07:12:43;;;;;;;5.17;2.93;;;13.00;99.90;;;;;;5110008;28;21020;-74
2022/10/29 07:15:11;;;;;;;9.63;3.10;;;13.10;99.90;;;;;;5107613;28;20443;-75
2022/10/29 07:17:38;;;;;;;3.73;3.03;;;13.30;99.90;;;;;;5104274;28;20458;-74
2022/10/29 07:20:07;;;;;;;5.80;3.07;;;13.20;99.90;;;;;;5103945;28;20959;-75
2022/10/29 07:22:34;;;;;;;7.40;3.00;;;13.40;99.90;;;;;;5100431;28;20448;-75
2022/10/29 07:25:01;;;;;;;3.70;2.50;;;13.50;99.90;;;;;;5110005;28;20447;-74
2022/10/29 07:27:29;;;;;;;3.10;2.80;;;13.70;99.90;;;;;;5110752;28;20452;-75
2022/10/29 07:29:56;;;;;;;4.27;2.67;;;13.70;99.90;;;;;;5110396;28;20480;-75
2022/10/29 07:32:23;;;;;;;4.67;2.93;;;13.70;99.90;;;;;;5109483;28;20456;-75
2022/10/29 07:34:50;;;;;;;5.20;3.07;;;13.70;99.90;;;;;;5110364;28;20458;-78
2022/10/29 07:37:17;;;;;;;6.17;3.27;;;13.80;99.90;;;;;;5108287;28;20452;-77
2022/10/29 07:39:43;;;;;;;3.10;2.80;;;14.00;99.90;;;;;;5109678;28;20451;-75
2022/10/29 07:42:10;;;;;;;4.77;3.20;;;14.10;99.90;;;;;;5108334;28;20459;-75
2022/10/29 07:44:38;;;;;;;3.60;3.00;;;14.10;99.90;;;;;;5109471;28;20474;-74
2022/10/29 07:47:05;;;;;;;4.30;3.37;;;14.20;99.90;;;;;;5104974;28;20452;-77
2022/10/29 07:49:32;;;;;;;6.93;3.60;;;14.20;99.90;;;;;;5106204;28;20512;-75
2022/10/29 07:51:59;;;;;;;7.90;3.70;;;14.30;99.90;;;;;;5109559;28;20824;-75
2022/10/29 07:54:26;;;;;;;6.90;3.13;;;14.40;99.90;;;;;;5109402;28;20443;-75
2022/10/29 07:56:53;;;;;;;6.83;3.10;;;14.40;99.90;;;;;;5100121;28;20451;-74
2022/10/29 07:59:19;;;;;;;5.73;3.10;;;14.60;99.90;;;;;;5106704;28;20680;-75
2022/10/29 08:01:48;;;;;;;7.00;3.87;;;14.60;99.90;;;;;;5108968;28;20444;-75
2022/10/29 08:04:14;;;;;;;6.00;3.07;;;14.70;99.90;;;;;;5109360;28;20452;-74
2022/10/29 08:06:41;;;;;;;6.20;3.07;;;14.90;99.90;;;;;;5109022;28;20950;-75
2022/10/29 08:09:10;;;;;;;5.73;3.37;;;15.00;99.90;;;;;;5108968;28;20543;-74
2022/10/29 08:11:36;;;;;;;5.07;2.70;;;15.10;99.90;;;;;;5105357;28;20950;-75
2022/10/29 08:14:03;;;;;;;9.07;2.57;;;15.30;46.80;;;;;;5108832;28;20535;-75
2022/10/29 08:16:30;;;;;;;7.53;3.47;;;15.40;1.00;;;;;;5108992;28;20824;-74
2022/10/29 08:18:58;;;;;;;5.90;2.70;;;15.60;1.00;;;;;;5107190;28;20448;-72
2022/10/29 08:21:25;;;;;;;4.50;3.53;;;15.70;1.00;;;;;;5108720;28;20931;-72
2022/10/29 08:23:52;;;;;;;4.70;2.73;;;15.80;1.00;;;;;;5109051;28;20443;-73
2022/10/29 08:26:20;;;;;;;6.60;3.40;;;15.90;1.00;;;;;;5108486;28;20522;-73
2022/10/29 08:28:46;;;;;;;7.73;3.30;;;16.00;1.00;;;;;;5108823;28;20452;-76
2022/10/29 08:31:14;;;;;;;5.60;3.13;;;16.10;1.00;;;;;;5108346;28;20479;-76
2022/10/29 08:33:41;;;;;;;5.33;3.67;;;16.10;1.00;;;;;;5109206;28;20583;-76
2022/10/29 08:36:10;;;;;;;5.33;3.93;;;16.20;1.00;;;;;;5107976;28;20449;-74
2022/10/29 08:38:36;;;;;;;7.50;3.10;;;16.30;1.00;;;;;;5108637;28;20450;-75
2022/10/29 08:41:30;;;;;;;5.40;3.23;;;16.30;1.00;;;;;;5107295;28;20444;-75
2022/10/29 08:44:09;;;;;;;4.93;2.60;;;16.30;1.00;;;;;;5109034;28;20455;-76
2022/10/29 08:46:44;;;;;;;4.10;2.87;;;16.30;1.00;;;;;;5108524;28;20805;-75
2022/10/29 08:49:17;;;;;;;4.70;3.07;;;16.30;1.00;;;;;;5107605;28;20931;-75
2022/10/29 08:51:52;;;;;;;4.00;3.27;;;16.40;1.00;;;;;;5109967;28;20459;-75
2022/10/29 08:54:18;;;;;;;8.10;3.67;;;16.40;99.90;;;;;;5110124;28;20770;-75
2022/10/29 08:56:49;;;;;;;5.30;3.77;;;16.50;99.90;;;;;;5110886;28;20447;-76
2022/10/29 08:59:18;;;;;;;3.00;2.60;;;16.60;99.90;;;;;;5110342;28;20775;-75
2022/10/29 09:01:44;;;;;;;9.43;4.10;;;16.60;99.90;;;;;;5114508;28;20447;-75
2022/10/29 09:04:22;;;;;;;7.00;2.80;;;16.70;99.90;;;;;;5110247;28;20452;-76
2022/10/29 09:07:03;;;;;;;9.13;5.63;;;16.90;1.00;;;;;;5111235;28;20448;-75
2022/10/29 09:09:38;;;;;;;4.77;3.03;;;17.00;1.00;;;;;;5110819;28;20799;-73
2022/10/29 09:12:26;;;;;;;4.20;3.00;;;17.10;99.90;;;;;;5108653;28;20466;-75
2022/10/29 09:15:25;;;;;;;8.00;3.43;;;17.20;99.90;;;;;;5110943;28;20447;-77
2022/10/29 09:18:14;;;;;;;5.97;3.10;;;17.30;4.50;;;;;;5090328;28;20448;-75
2022/10/29 09:20:52;;;;;;;8.10;4.30;;;17.40;1.00;;;;;;5110594;28;20943;-75
2022/10/29 09:23:32;;;;;;;7.80;4.10;;;17.50;99.90;;;;;;5111445;28;20443;-74
2022/10/29 09:26:02;;;;;;;5.50;3.80;;;17.70;99.90;;;;;;5112882;28;20446;-74
2022/10/29 09:28:41;;;;;;;5.47;3.27;;;17.90;1.00;;;;;;5115416;28;20467;-74
2022/10/29 09:31:17;;;;;;;8.13;3.93;;;18.00;1.00;;;;;;5104081;28;20470;-74
2022/10/29 09:33:46;;;;;;;7.60;3.60;;;18.00;97.70;;;;;;5114881;28;20443;-74
2022/10/29 09:36:15;;;;;;;5.87;4.23;;;18.10;1.00;;;;;;5112764;28;20950;-75
2022/10/29 09:38:51;;;;;;;11.60;3.80;;;18.20;99.90;;;;;;5110032;28;20466;-75
2022/10/29 09:41:19;;;;;;;7.10;3.93;;;18.30;99.90;;;;;;5105402;28;20444;-75
2022/10/29 09:43:52;;;;;;;6.93;3.73;;;18.40;99.90;;;;;;5118548;28;20451;-75
2022/10/29 09:46:27;;;;;;;5.47;2.93;;;18.50;1.00;;;;;;5119443;28;20450;-74
2022/10/29 09:49:03;;;;;;;8.60;3.50;;;18.60;99.90;;;;;;5110920;28;20467;-74
2022/10/29 09:51:40;;;;;;;5.60;4.67;;;18.70;1.00;;;;;;5118016;28;20481;-75
2022/10/29 09:54:09;;;;;;;4.30;3.50;;;18.70;1.00;;;;;;5124810;28;20450;-73
2022/10/29 09:56:39;;;;;;;6.80;3.53;;;18.70;1.00;;;;;;5119046;28;20444;-75
2022/10/29 09:59:15;;;;;;;10.03;4.03;;;18.90;9.80;;;;;;5113299;28;20448;-75
2022/10/29 10:01:41;;;;;;;4.53;2.90;;;19.00;99.90;;;;;;5110504;28;20458;-73
2022/10/29 10:04:17;;;;;;;4.20;2.90;;;19.10;1.00;;;;;;5113618;28;20800;-76
2022/10/29 10:07:02;;;;;;;5.17;3.53;;;19.20;1.00;;;;;;5113552;28;20450;-75
2022/10/29 10:09:53;;;;;;;7.17;3.10;;;19.30;1.00;;;;;;5113011;28;20452;-74
2022/10/29 10:12:23;;;;;;;3.37;3.03;;;19.50;1.00;;;;;;5113025;28;20439;-77
2022/10/29 10:15:02;;;;;;;5.23;3.57;;;19.70;1.00;;;;;;5113876;28;20448;-74
2022/10/29 10:17:50;;;;;;;5.93;2.90;;;19.80;1.00;;;;;;5114145;28;20460;-74
2022/10/29 10:20:27;;;;;;;3.40;2.57;;;19.90;1.00;;;;;;5103079;28;20458;-73
2022/10/29 10:22:54;;;;;;;6.77;3.87;;;20.10;1.00;;;;;;5113741;28;20444;-75
2022/10/29 10:25:34;;;;;;;3.20;2.63;;;20.20;1.00;;;;;;5112857;28;20632;-74
2022/10/29 10:28:04;;;;;;;4.20;2.43;;;20.40;1.00;;;;;;5104689;28;20440;-72
2022/10/29 10:30:31;;;;;;;4.10;2.87;;;20.50;1.00;;;;;;5113504;28;20468;-73
2022/10/29 10:33:11;;;;;;;3.23;2.30;;;20.60;99.90;;;;;;5113653;28;20444;-74
2022/10/29 10:35:39;;;;;;;9.67;3.57;;;20.70;99.90;;;;;;5113360;28;20448;-74
2022/10/29 10:38:10;;;;;;;4.83;2.80;;;20.80;99.90;;;;;;5112853;28;20440;-73
2022/10/29 10:40:38;;;;;;;8.90;3.27;;;20.80;99.90;;;;;;5100259;27;20871;-74
2022/10/29 10:43:05;;;;;;;4.27;3.07;;;20.70;99.90;;;;;;5112725;28;20454;-74
2022/10/29 10:45:38;;;;;;;7.33;4.30;;;20.80;99.90;;;;;;5113188;28;20452;-73
2022/10/29 10:48:09;;;;;;;8.40;3.63;;;20.90;99.90;;;;;;5112902;28;20448;-74
2022/10/29 10:50:37;;;;;;;5.03;2.97;;;21.10;99.90;;;;;;5113251;28;21001;-74
2022/10/29 10:53:14;;;;;;;8.00;3.60;;;21.10;99.90;;;;;;5111807;28;20957;-74
2022/10/29 10:55:47;;;;;;;5.10;3.60;;;21.30;99.90;;;;;;5104644;28;20799;-75
2022/10/29 10:58:21;;;;;;;5.47;3.80;;;21.40;99.90;;;;;;5112319;28;20451;-75
2022/10/29 11:00:53;;;;;;;4.10;3.00;;;21.50;99.90;;;;;;5113418;28;20444;-74
2022/10/29 11:03:26;;;;;;;6.17;2.80;;;21.50;99.90;;;;;;5112502;28;20619;-74
2022/10/29 11:06:01;;;;;;;3.17;2.60;;;21.60;99.90;;;;;;5112321;28;20935;-74
2022/10/29 11:08:33;;;;;;;4.33;2.73;;;21.70;99.90;;;;;;5113073;28;20444;-74
2022/10/29 11:11:07;;;;;;;6.27;3.13;;;21.80;99.90;;;;;;5112742;28;20834;-73
2022/10/29 11:13:34;;;;;;;8.57;4.23;;;21.90;99.90;;;;;;5106855;28;20513;-74
2022/10/29 11:16:07;;;;;;;3.27;2.47;;;21.90;99.90;;;;;;5111367;28;20456;-74
2022/10/29 11:18:38;;;;;;;7.63;3.07;;;22.00;99.90;;;;;;5112528;28;20444;-74
2022/10/29 11:21:12;;;;;;;3.70;3.10;;;22.00;99.90;;;;;;5111535;28;20459;-74
2022/10/29 11:23:45;;;;;;;3.43;2.70;;;22.10;99.90;;;;;;5103016;28;20451;-75
2022/10/29 11:26:17;;;;;;;4.10;3.23;;;22.30;99.90;;;;;;5111244;28;20935;-75
2022/10/29 11:28:50;;;;;;;8.70;3.40;;;22.40;99.90;;;;;;5112327;28;20808;-74
2022/10/29 11:31:22;;;;;;;6.10;3.50;;;22.60;99.90;;;;;;5109758;28;20830;-77
2022/10/29 11:33:56;;;;;;;4.77;2.73;;;22.70;99.90;;;;;;5112190;28;20971;-73
2022/10/29 11:36:27;;;;;;;5.53;3.33;;;22.90;99.90;;;;;;5111406;27;20780;-71
2022/10/29 11:38:58;;;;;;;4.70;3.80;;;23.00;99.90;;;;;;5112685;28;20451;-75
2022/10/29 11:41:34;;;;;;;4.80;2.70;;;23.00;99.90;;;;;;5112441;28;20448;-75
2022/10/29 11:44:01;;;;;;;3.83;2.53;;;23.10;99.90;;;;;;5111300;28;20443;-75
2022/10/29 11:46:35;;;;;;;6.50;4.17;;;23.20;99.90;;;;;;5111809;28;20950;-75
2022/10/29 11:49:22;;;;;;;3.60;2.70;;;23.30;99.90;;;;;;5111193;28;20486;-74
2022/10/29 11:51:58;;;;;;;3.60;2.90;;;23.30;99.90;;;;;;5111538;28;20472;-75
2022/10/29 11:54:42;;;;;;;4.07;2.80;;;23.50;99.90;;;;;;5112464;28;20448;-75
2022/10/29 11:57:16;;;;;;;8.60;3.67;;;23.60;99.90;;;;;;5110700;28;20802;-75
2022/10/29 12:00:00;;;;;;;3.83;3.47;;;23.70;99.90;;;;;;5111844;28;20934;-75
2022/10/29 12:02:44;;;;;;;6.13;2.90;;;23.80;99.90;;;;;;5111775;28;20447;-75
2022/10/29 12:05:21;;;;;;;6.00;3.27;;;24.00;99.90;;;;;;5111246;28;20914;-74
2022/10/29 12:08:06;;;;;;;4.53;2.90;;;24.20;99.90;;;;;;5111798;28;20500;-75
2022/10/29 12:10:45;;;;;;;6.77;2.90;;;24.30;99.90;;;;;;5111815;28;20479;-75
2022/10/29 12:13:24;;;;;;;5.23;2.77;;;24.50;99.90;;;;;;5111678;28;20451;-75
2022/10/29 12:16:03;;;;;;;5.37;3.30;;;24.50;99.90;;;;;;5107467;28;20463;-75
2022/10/29 12:18:35;;;;;;;7.80;3.60;;;24.70;99.90;;;;;;5102190;28;20447;-75
2022/10/29 12:21:09;;;;;;;4.57;2.57;;;24.70;99.90;;;;;;5111271;28;20455;-75
2022/10/29 12:23:49;;;;;;;4.20;2.70;;;24.60;99.90;;;;;;5111244;28;20446;-75
2022/10/29 12:26:24;;;;;;;7.10;3.87;;;24.60;99.90;;;;;;5110796;28;20439;-75
2022/10/29 12:28:59;;;;;;;4.70;3.73;;;24.60;99.90;;;;;;5111080;28;20451;-76
2022/10/29 12:31:34;;;;;;;6.80;4.43;;;24.50;99.90;;;;;;5112080;28;20478;-75
2022/10/29 12:34:05;;;;;;;6.10;4.03;;;24.40;99.90;;;;;;5110192;28;20435;-76
2022/10/29 12:36:41;;;;;;;5.83;3.80;;;24.40;99.90;;;;;;5110732;28;20439;-76
2022/10/29 12:39:18;;;;;;;15.83;4.30;;;24.20;99.90;;;;;;5109572;28;20442;-76
2022/10/29 12:41:49;;;;;;;7.87;4.00;;;24.20;99.90;;;;;;5111059;28;20443;-76
2022/10/29 12:44:26;;;;;;;6.43;3.53;;;24.20;99.90;;;;;;5110787;28;20440;-76
2022/10/29 12:46:59;;;;;;;4.73;4.00;;;24.30;99.90;;;;;;5110894;28;20455;-76
2022/10/29 12:49:41;;;;;;;5.40;4.00;;;24.30;99.90;;;;;;5110489;28;20494;-75
2022/10/29 12:52:16;;;;;;;7.60;4.60;;;24.20;99.90;;;;;;5108197;28;20816;-74
2022/10/29 12:54:45;;;;;;;6.37;4.00;;;24.20;99.90;;;;;;5106125;28;20946;-74
2022/10/29 12:57:30;;;;;;;6.23;3.27;;;24.20;99.90;;;;;;5109728;28;20447;-74
2022/10/29 13:00:33;;;;;;;7.70;4.07;;;24.30;99.90;;;;;;5113222;28;20448;-74
2022/10/29 13:03:00;;;;;;;6.07;4.33;;;24.30;99.90;;;;;;5122104;27;20453;-76
2022/10/29 13:05:39;;;;;;;6.73;4.63;;;24.50;99.90;;;;;;5113248;28;20448;-74